createdAt,value
2022-11-26T00:01:44.047Z,80.00
2022-11-26T00:04:15.514Z,85.20
2022-11-26T00:06:46.551Z,79.60
2022-11-26T00:09:20.705Z,80.20
2022-11-26T00:11:51.523Z,78.70
2022-11-26T00:14:22.142Z,76.80
2022-11-26T00:16:53.183Z,80.00
2022-11-26T00:19:23.859Z,82.40
2022-11-26T00:21:54.748Z,79.00
2022-11-26T00:24:27.790Z,78.10
2022-11-26T00:26:59.284Z,74.40
2022-11-26T00:29:30.012Z,75.70
2022-11-26T00:32:00.803Z,70.80
2022-11-26T00:34:31.441Z,65.60
2022-11-26T00:37:02.747Z,62.40
2022-11-26T00:39:33.358Z,65.40
2022-11-26T00:42:06.223Z,76.00
2022-11-26T00:44:37.154Z,60.10
2022-11-26T00:47:10.040Z,62.70
2022-11-26T00:49:40.792Z,58.10
2022-11-26T00:52:22.135Z,57.50
2022-11-26T00:54:52.905Z,62.60
2022-11-26T00:57:23.822Z,54.30
2022-11-26T00:59:54.370Z,53.50
2022-11-26T01:02:25.248Z,57.50
2022-11-26T01:04:56.414Z,61.50
2022-11-26T01:07:27.447Z,57.20
2022-11-26T01:09:58.020Z,55.40
2022-11-26T01:12:30.865Z,59.90
2022-11-26T01:15:01.433Z,50.20
2022-11-26T01:17:32.159Z,60.90
2022-11-26T01:20:02.800Z,58.60
2022-11-26T01:22:33.636Z,59.60
2022-11-26T01:25:04.333Z,63.00
2022-11-26T01:27:35.202Z,58.40
2022-11-26T01:30:12.031Z,57.60
2022-11-26T01:32:43.118Z,53.60
2022-11-26T01:35:14.111Z,60.00
2022-11-26T01:37:45.357Z,58.70
2022-11-26T01:40:31.138Z,52.00
2022-11-26T01:43:05.416Z,58.20
2022-11-26T01:45:37.532Z,55.60
2022-11-26T01:48:17.944Z,67.90
2022-11-26T01:50:59.573Z,62.50
2022-11-26T01:53:35.236Z,70.40
2022-11-26T01:56:08.189Z,61.40
2022-11-26T01:58:41.551Z,63.30
2022-11-26T02:03:45.062Z,74.30
2022-11-26T02:06:19.178Z,67.70
2022-11-26T02:08:50.111Z,68.20
2022-11-26T02:11:22.736Z,64.60
2022-11-26T02:13:55.392Z,66.80
2022-11-26T02:16:41.042Z,73.30
2022-11-26T02:19:19.159Z,67.00
2022-11-26T02:21:53.885Z,72.40
2022-11-26T02:24:36.436Z,65.60
2022-11-26T02:27:25.152Z,66.50
2022-11-26T02:30:04.383Z,65.20
2022-11-26T02:32:40.131Z,73.90
2022-11-26T02:35:14.199Z,65.20
2022-11-26T02:37:47.643Z,71.70
2022-11-26T02:42:47.319Z,69.70
2022-11-26T02:45:19.433Z,66.80
2022-11-26T02:47:51.643Z,67.50
2022-11-26T02:50:25.499Z,66.70
2022-11-26T02:52:57.256Z,65.10
2022-11-26T02:55:30.365Z,72.70
2022-11-26T02:58:01.491Z,68.20
2022-11-26T03:00:32.672Z,71.60
2022-11-26T03:03:05.181Z,74.10
2022-11-26T03:05:38.578Z,70.80
2022-11-26T03:08:09.299Z,70.10
2022-11-26T03:10:40.313Z,70.00
2022-11-26T03:13:11.094Z,76.60
2022-11-26T03:15:41.841Z,72.10
2022-11-26T03:18:12.477Z,70.70
2022-11-26T03:20:42.979Z,72.20
2022-11-26T03:23:13.636Z,78.30
2022-11-26T03:25:44.274Z,75.00
2022-11-26T03:28:15.101Z,74.20
2022-11-26T03:30:50.484Z,68.80
2022-11-26T03:33:21.365Z,69.90
2022-11-26T03:35:52.062Z,66.30
2022-11-26T03:38:22.849Z,68.10
2022-11-26T03:40:58.571Z,61.40
2022-11-26T03:43:36.813Z,62.80
2022-11-26T03:46:07.762Z,57.60
2022-11-26T03:48:38.838Z,64.10
2022-11-26T03:51:09.639Z,66.70
2022-11-26T03:53:40.603Z,59.10
2022-11-26T03:56:11.395Z,57.90
2022-11-26T03:58:42.126Z,60.80
2022-11-26T04:01:13.989Z,59.60
2022-11-26T04:03:44.827Z,61.00
2022-11-26T04:06:16.652Z,62.50
2022-11-26T04:08:47.718Z,65.90
2022-11-26T04:11:18.457Z,53.10
2022-11-26T04:13:49.251Z,56.60
2022-11-26T04:16:20.961Z,62.60
2022-11-26T04:18:51.595Z,62.30
2022-11-26T04:21:22.005Z,64.70
2022-11-26T04:23:52.755Z,63.50
2022-11-26T04:26:23.421Z,68.90
2022-11-26T04:28:54.100Z,61.60
2022-11-26T04:31:24.878Z,60.30
2022-11-26T04:33:55.655Z,63.40
2022-11-26T04:36:26.266Z,61.00
2022-11-26T04:38:58.226Z,64.80
2022-11-26T04:41:29.093Z,62.70
2022-11-26T04:43:59.828Z,58.60
2022-11-26T04:46:30.397Z,62.80
2022-11-26T04:49:01.096Z,62.80
2022-11-26T04:51:31.641Z,62.10
2022-11-26T04:54:03.441Z,66.80
2022-11-26T04:56:35.334Z,76.20
2022-11-26T04:59:06.011Z,79.30
2022-11-26T05:01:36.992Z,68.30
2022-11-26T05:04:08.438Z,68.80
2022-11-26T05:06:39.187Z,69.30
2022-11-26T05:09:09.887Z,73.20
2022-11-26T05:11:40.661Z,76.70
2022-11-26T05:14:11.396Z,77.10
2022-11-26T05:16:42.190Z,79.30
2022-11-26T05:19:12.935Z,75.10
2022-11-26T05:21:44.351Z,75.60
2022-11-26T05:24:15.041Z,76.10
2022-11-26T05:26:45.565Z,75.60
2022-11-26T05:29:16.450Z,74.30
2022-11-26T05:31:47.081Z,81.80
2022-11-26T05:34:18.064Z,80.20
2022-11-26T05:36:48.749Z,74.00
2022-11-26T05:39:19.846Z,72.20
2022-11-26T05:41:50.955Z,77.00
2022-11-26T05:44:21.720Z,77.20
2022-11-26T05:46:52.250Z,75.90
2022-11-26T05:49:22.987Z,73.60
2022-11-26T05:51:53.629Z,81.90
2022-11-26T05:54:25.060Z,71.40
2022-11-26T05:57:00.075Z,74.90
2022-11-26T05:59:31.348Z,76.00
2022-11-26T06:02:02.215Z,74.10
2022-11-26T06:04:33.290Z,69.50
2022-11-26T06:07:04.875Z,83.70
2022-11-26T06:09:36.099Z,81.80
2022-11-26T06:12:07.480Z,78.20
2022-11-26T06:14:42.951Z,86.00
2022-11-26T06:17:14.261Z,78.60
2022-11-26T06:19:44.979Z,80.90
2022-11-26T06:22:15.829Z,84.40
2022-11-26T06:24:46.677Z,74.10
2022-11-26T06:27:17.293Z,73.50
2022-11-26T06:29:48.232Z,73.60
2022-11-26T06:32:18.826Z,84.60
2022-11-26T06:34:53.803Z,87.10
2022-11-26T06:37:27.086Z,80.30
2022-11-26T06:39:58.080Z,77.00
2022-11-26T06:42:29.990Z,72.30
2022-11-26T06:45:00.889Z,70.60
2022-11-26T06:47:31.560Z,69.90
2022-11-26T06:50:05.201Z,78.50
2022-11-26T06:52:40.460Z,78.20
2022-11-26T06:55:11.607Z,83.60
2022-11-26T06:57:42.265Z,77.50
2022-11-26T07:00:14.765Z,68.40
2022-11-26T07:02:45.689Z,81.00
2022-11-26T07:05:16.636Z,68.40
2022-11-26T07:07:47.498Z,67.70
2022-11-26T07:10:18.341Z,63.70
2022-11-26T07:12:49.022Z,67.50
2022-11-26T07:15:20.265Z,62.60
2022-11-26T07:17:51.045Z,71.70
2022-11-26T07:20:22.043Z,67.10
2022-11-26T07:22:52.739Z,70.20
2022-11-26T07:25:24.180Z,74.70
2022-11-26T07:27:54.690Z,72.80
2022-11-26T07:30:25.497Z,77.40
2022-11-26T07:32:56.120Z,69.10
2022-11-26T07:35:26.847Z,72.30
2022-11-26T07:37:58.144Z,77.10
2022-11-26T07:40:28.963Z,73.30
2022-11-26T07:43:00.802Z,66.20
2022-11-26T07:45:36.995Z,76.70
2022-11-26T07:48:11.542Z,64.20
2022-11-26T07:50:46.469Z,66.90
2022-11-26T07:53:19.801Z,64.30
2022-11-26T07:55:50.693Z,63.20
2022-11-26T07:58:21.412Z,68.10
2022-11-26T08:00:54.780Z,59.00
2022-11-26T08:03:25.805Z,57.50
2022-11-26T08:05:56.817Z,67.30
2022-11-26T08:08:27.468Z,67.40
2022-11-26T08:10:58.380Z,68.00
2022-11-26T08:13:29.345Z,58.40
2022-11-26T08:16:00.485Z,60.30
2022-11-26T08:18:31.219Z,64.90
2022-11-26T08:21:02.309Z,61.80
2022-11-26T08:23:33.302Z,59.50
2022-11-26T08:26:27.932Z,56.70
2022-11-26T08:28:58.830Z,58.20
2022-11-26T08:31:29.617Z,53.90
2022-11-26T08:34:00.842Z,55.20
2022-11-26T08:36:32.953Z,55.50
2022-11-26T08:39:03.505Z,56.30
2022-11-26T08:41:34.237Z,55.90
2022-11-26T08:44:06.564Z,52.40
2022-11-26T08:46:39.427Z,52.30
2022-11-26T08:49:12.651Z,57.40
2022-11-26T08:51:43.730Z,57.00
2022-11-26T08:54:14.254Z,56.00
2022-11-26T08:56:45.303Z,53.10
2022-11-26T08:59:16.822Z,54.80
2022-11-26T09:01:47.729Z,54.80
2022-11-26T09:04:18.720Z,48.50
2022-11-26T09:06:49.564Z,57.20
2022-11-26T09:09:21.010Z,52.00
2022-11-26T09:11:54.312Z,53.20
2022-11-26T09:14:26.314Z,52.70
2022-11-26T09:16:57.891Z,52.80
2022-11-26T09:19:28.831Z,57.20
2022-11-26T09:21:59.689Z,55.60
2022-11-26T09:24:30.938Z,53.00
2022-11-26T09:27:07.826Z,54.60
2022-11-26T09:29:39.372Z,56.30
2022-11-26T09:32:29.640Z,58.40
2022-11-26T09:35:01.105Z,57.60
2022-11-26T09:37:32.190Z,57.40
2022-11-26T09:40:02.981Z,54.40
2022-11-26T09:42:40.515Z,58.10
2022-11-26T09:45:18.600Z,59.20
2022-11-26T09:47:53.405Z,55.60
2022-11-26T09:50:27.721Z,49.90
2022-11-26T09:53:00.506Z,50.60
2022-11-26T09:55:32.136Z,53.20
2022-11-26T09:58:07.767Z,80.40
2022-11-26T10:00:39.536Z,53.90
2022-11-26T10:03:14.111Z,52.60
2022-11-26T10:05:51.274Z,49.80
2022-11-26T10:08:38.748Z,57.10
2022-11-26T10:11:11.912Z,45.50
2022-11-26T10:13:45.141Z,53.40
2022-11-26T10:16:25.828Z,54.80
2022-11-26T10:19:00.023Z,53.00
2022-11-26T10:21:57.514Z,54.50
2022-11-26T10:26:54.283Z,57.30
2022-11-26T10:29:25.891Z,55.10
2022-11-26T10:31:58.983Z,57.70
2022-11-26T10:34:38.647Z,53.00
2022-11-26T10:37:10.371Z,48.50
2022-11-26T10:39:41.053Z,51.40
2022-11-26T10:42:14.712Z,57.60
2022-11-26T10:44:45.248Z,49.70
2022-11-26T10:47:26.915Z,52.40
2022-11-26T10:50:39.597Z,48.70
2022-11-26T10:53:07.473Z,49.60
2022-11-26T10:55:40.338Z,51.90
2022-11-26T10:58:16.291Z,56.20
2022-11-26T11:00:54.743Z,46.00
2022-11-26T11:03:44.952Z,45.50
2022-11-26T11:06:29.215Z,54.60
2022-11-26T11:09:00.031Z,47.70
2022-11-26T11:11:32.115Z,50.00
2022-11-26T11:14:02.979Z,45.50
2022-11-26T11:16:39.157Z,53.00
2022-11-26T11:19:21.854Z,48.00
2022-11-26T11:21:52.701Z,43.90
2022-11-26T11:24:24.564Z,49.00
2022-11-26T11:26:57.237Z,43.40
2022-11-26T11:29:33.780Z,43.40
2022-11-26T11:32:05.384Z,47.00
2022-11-26T11:34:39.067Z,52.90
2022-11-26T11:37:15.338Z,48.80
2022-11-26T11:39:46.333Z,46.60
2022-11-26T11:42:22.270Z,45.50
2022-11-26T11:44:53.498Z,47.20
2022-11-26T11:47:31.315Z,46.40
2022-11-26T11:50:21.299Z,51.60
2022-11-26T11:53:00.613Z,46.50
2022-11-26T11:55:38.633Z,43.40
2022-11-26T11:58:29.980Z,40.20
2022-11-26T12:01:07.245Z,50.00
2022-11-26T12:03:53.449Z,44.40
2022-11-26T12:06:29.535Z,45.70
2022-11-26T12:09:04.443Z,47.90
2022-11-26T12:11:42.570Z,46.60
2022-11-26T12:14:16.639Z,50.90
2022-11-26T12:16:48.603Z,42.20
2022-11-26T12:19:21.730Z,41.60
2022-11-26T12:21:55.776Z,39.50
2022-11-26T12:24:30.428Z,46.40
2022-11-26T12:27:04.989Z,42.10
2022-11-26T12:29:39.206Z,45.50
2022-11-26T12:32:14.441Z,39.60
2022-11-26T12:34:47.838Z,39.70
2022-11-26T12:39:53.822Z,42.30
2022-11-26T12:42:27.617Z,38.80
2022-11-26T12:45:05.562Z,32.80
2022-11-26T12:47:39.884Z,38.20
2022-11-26T12:50:16.709Z,35.20
2022-11-26T12:52:54.476Z,34.90
2022-11-26T12:55:28.156Z,36.20
2022-11-26T12:58:00.558Z,34.60
2022-11-26T13:00:35.896Z,35.20
2022-11-26T13:03:08.099Z,36.30
2022-11-26T13:05:48.592Z,33.20
2022-11-26T13:08:28.589Z,34.90
2022-11-26T13:11:10.568Z,35.70
2022-11-26T13:13:44.505Z,37.50
2022-11-26T13:16:20.174Z,34.20
2022-11-26T13:18:52.087Z,36.30
2022-11-26T13:21:41.481Z,31.60
2022-11-26T13:24:23.176Z,36.90
2022-11-26T13:27:02.919Z,37.70
2022-11-26T13:29:42.836Z,36.90
2022-11-26T13:32:26.305Z,35.50
2022-11-26T13:35:08.221Z,39.30
2022-11-26T13:37:52.390Z,40.60
2022-11-26T13:40:39.059Z,39.90
2022-11-26T13:43:25.980Z,39.80
2022-11-26T13:46:00.744Z,40.00
2022-11-26T13:48:34.971Z,36.50
2022-11-26T13:51:09.488Z,38.20
2022-11-26T13:53:42.743Z,37.80
2022-11-26T13:56:14.047Z,37.90
2022-11-26T13:58:46.647Z,33.10
2022-11-26T14:01:30.569Z,38.40
2022-11-26T14:04:01.430Z,32.00
2022-11-26T14:06:32.407Z,32.60
2022-11-26T14:09:03.424Z,37.40
2022-11-26T14:11:54.826Z,33.40
2022-11-26T14:14:48.032Z,37.60
2022-11-26T14:17:27.968Z,38.30
2022-11-26T14:20:02.991Z,36.60
2022-11-26T14:22:35.039Z,36.10
2022-11-26T14:25:06.620Z,39.40
2022-11-26T14:27:39.257Z,35.90
2022-11-26T14:30:26.502Z,36.10
2022-11-26T14:33:11.357Z,38.40
2022-11-26T14:35:42.492Z,35.10
2022-11-26T14:38:24.802Z,38.20
2022-11-26T14:40:59.877Z,39.60
2022-11-26T14:43:30.826Z,43.70
2022-11-26T14:46:02.375Z,41.10
2022-11-26T14:48:34.388Z,43.10
2022-11-26T14:51:08.357Z,42.60
2022-11-26T14:53:43.229Z,42.30
2022-11-26T14:56:14.271Z,46.60
2022-11-26T14:58:47.536Z,39.80
2022-11-26T15:01:22.011Z,43.70
2022-11-26T15:04:00.109Z,38.90
2022-11-26T15:06:35.040Z,40.20
2022-11-26T15:09:16.255Z,42.90
2022-11-26T15:11:48.898Z,41.20
2022-11-26T15:14:22.659Z,44.50
2022-11-26T15:16:56.546Z,41.60
2022-11-26T15:19:28.524Z,37.00
2022-11-26T15:21:59.420Z,43.50
2022-11-26T15:24:30.134Z,40.20
2022-11-26T15:27:00.836Z,45.50
2022-11-26T15:29:33.112Z,46.10
2022-11-26T15:32:03.897Z,45.60
2022-11-26T15:34:35.188Z,47.00
2022-11-26T15:37:06.472Z,44.40
2022-11-26T15:39:37.742Z,45.90
2022-11-26T15:42:25.107Z,44.90
2022-11-26T15:44:56.112Z,49.90
2022-11-26T15:47:28.260Z,48.70
2022-11-26T15:50:00.485Z,48.10
2022-11-26T15:52:33.159Z,51.90
2022-11-26T15:55:13.751Z,44.30
2022-11-26T15:57:45.333Z,45.60
2022-11-26T16:00:22.522Z,43.60
2022-11-26T16:02:53.339Z,51.40
2022-11-26T16:05:29.973Z,46.20
2022-11-26T16:08:02.050Z,45.50
2022-11-26T16:10:35.900Z,47.40
2022-11-26T16:13:19.972Z,42.30
2022-11-26T16:18:21.241Z,48.20
2022-11-26T16:21:01.680Z,42.90
2022-11-26T16:23:32.437Z,44.60
2022-11-26T16:26:11.505Z,55.40
2022-11-26T16:28:42.120Z,49.20
2022-11-26T16:31:12.895Z,49.30
2022-11-26T16:33:43.812Z,46.70
2022-11-26T16:36:30.786Z,42.20
2022-11-26T16:39:01.410Z,47.30
2022-11-26T16:41:32.201Z,49.00
2022-11-26T16:44:03.183Z,50.10
2022-11-26T16:46:36.388Z,46.80
2022-11-26T16:51:36.306Z,47.80
2022-11-26T16:54:07.197Z,49.90
2022-11-26T16:56:40.124Z,51.30
2022-11-26T16:59:16.440Z,54.30
2022-11-26T17:01:47.486Z,50.00
2022-11-26T17:04:19.284Z,47.50
2022-11-26T17:06:50.287Z,51.30
2022-11-26T17:09:21.280Z,52.00
2022-11-26T17:11:51.964Z,42.30
2022-11-26T17:14:22.838Z,42.10
2022-11-26T17:16:53.389Z,40.30
2022-11-26T17:19:24.603Z,42.40
2022-11-26T17:21:55.256Z,36.90
2022-11-26T17:24:31.265Z,38.10
2022-11-26T17:27:03.268Z,38.00
2022-11-26T17:29:37.096Z,42.90
2022-11-26T17:32:12.738Z,39.40
2022-11-26T17:34:43.552Z,40.80
2022-11-26T17:37:15.605Z,42.40
2022-11-26T17:39:46.519Z,41.10
2022-11-26T17:42:19.998Z,40.50
2022-11-26T17:44:51.811Z,37.90
2022-11-26T17:47:22.897Z,39.00
2022-11-26T17:49:54.312Z,36.20
2022-11-26T17:52:24.931Z,37.10
2022-11-26T17:54:55.758Z,40.80
2022-11-26T17:57:28.550Z,34.70
2022-11-26T17:59:59.424Z,33.10
2022-11-26T18:02:30.176Z,31.10
2022-11-26T18:05:00.847Z,32.20
2022-11-26T18:07:31.547Z,27.10
2022-11-26T18:10:02.513Z,27.20
2022-11-26T18:12:32.945Z,28.60
2022-11-26T18:15:05.260Z,28.00
2022-11-26T18:17:35.939Z,26.90
2022-11-26T18:20:08.553Z,28.90
2022-11-26T18:22:39.980Z,25.60
2022-11-26T18:25:11.219Z,26.80
2022-11-26T18:27:41.913Z,28.70
2022-11-26T18:30:13.910Z,31.00
2022-11-26T18:32:44.702Z,29.30
2022-11-26T18:35:16.156Z,31.70
2022-11-26T18:37:47.028Z,28.00
2022-11-26T18:40:18.387Z,28.10
2022-11-26T18:42:52.408Z,26.40
2022-11-26T18:45:23.485Z,27.90
2022-11-26T18:47:54.259Z,27.20
2022-11-26T18:50:25.055Z,26.30
2022-11-26T18:52:58.490Z,24.30
2022-11-26T18:55:29.424Z,21.00
2022-11-26T18:58:02.880Z,25.60
2022-11-26T19:00:36.730Z,23.30
2022-11-26T19:03:07.534Z,23.40
2022-11-26T19:05:39.137Z,29.40
2022-11-26T19:08:09.550Z,23.20
2022-11-26T19:10:40.488Z,23.30
2022-11-26T19:13:11.029Z,22.10
2022-11-26T19:15:43.130Z,21.20
2022-11-26T19:18:14.548Z,23.20
2022-11-26T19:20:53.076Z,22.70
2022-11-26T19:23:26.239Z,23.90
2022-11-26T19:25:57.241Z,19.10
2022-11-26T19:28:28.624Z,20.90
2022-11-26T19:31:00.749Z,19.80
2022-11-26T19:33:31.730Z,21.80
2022-11-26T19:36:05.877Z,22.60
2022-11-26T19:38:36.474Z,24.30
2022-11-26T19:41:07.911Z,22.40
2022-11-26T19:43:40.344Z,21.70
2022-11-26T19:46:12.824Z,23.30
2022-11-26T19:48:44.831Z,22.80
2022-11-26T19:51:16.135Z,23.60
2022-11-26T19:53:47.925Z,24.60
2022-11-26T19:56:19.804Z,20.70
2022-11-26T19:58:50.812Z,22.60
2022-11-26T20:01:22.423Z,23.90
2022-11-26T20:03:53.223Z,27.50
2022-11-26T20:06:26.538Z,29.60
2022-11-26T20:08:58.486Z,30.80
2022-11-26T20:11:30.282Z,26.70
2022-11-26T20:14:01.188Z,27.50
2022-11-26T20:16:33.335Z,29.10
2022-11-26T20:19:04.300Z,30.90
2022-11-26T20:21:38.444Z,30.90
2022-11-26T20:24:10.869Z,28.40
2022-11-26T20:26:43.402Z,32.10
2022-11-26T20:29:15.200Z,32.90
2022-11-26T20:31:47.254Z,37.10
2022-11-26T20:34:18.815Z,34.30
2022-11-26T20:36:51.461Z,36.60
2022-11-26T20:39:23.666Z,35.70
2022-11-26T20:41:54.705Z,34.00
2022-11-26T20:44:27.272Z,37.20
2022-11-26T20:46:58.218Z,36.80
2022-11-26T20:49:33.991Z,40.10
2022-11-26T20:52:06.668Z,35.40
2022-11-26T20:54:37.991Z,41.80
2022-11-26T20:57:08.783Z,39.10
2022-11-26T20:59:41.196Z,43.40
2022-11-26T21:02:15.809Z,38.50
2022-11-26T21:04:46.886Z,38.80
2022-11-26T21:07:17.771Z,38.20
2022-11-26T21:09:48.757Z,39.10
2022-11-26T21:12:19.468Z,41.60
2022-11-26T21:14:50.078Z,40.40
2022-11-26T21:17:21.999Z,37.30
2022-11-26T21:19:52.689Z,36.10
2022-11-26T21:22:23.787Z,33.10
2022-11-26T21:24:54.673Z,36.90
2022-11-26T21:27:25.513Z,37.00
2022-11-26T21:29:56.339Z,38.10
2022-11-26T21:32:27.027Z,37.30
2022-11-26T21:34:57.652Z,32.70
2022-11-26T21:37:29.572Z,38.50
2022-11-26T21:40:00.210Z,36.90
2022-11-26T21:42:31.450Z,34.40
2022-11-26T21:45:02.086Z,34.00
2022-11-26T21:47:33.221Z,33.40
2022-11-26T21:50:04.257Z,35.80
2022-11-26T21:52:35.105Z,32.80
2022-11-26T21:55:06.716Z,35.60
2022-11-26T21:57:37.883Z,37.00
2022-11-26T22:00:10.272Z,35.10
2022-11-26T22:02:41.354Z,35.10
2022-11-26T22:05:12.414Z,35.10
2022-11-26T22:07:43.422Z,33.40
2022-11-26T22:10:14.071Z,33.70
2022-11-26T22:12:46.381Z,28.80
2022-11-26T22:15:17.192Z,33.20
2022-11-26T22:17:47.860Z,36.50
2022-11-26T22:20:18.638Z,30.20
2022-11-26T22:22:49.723Z,32.30
2022-11-26T22:25:21.993Z,30.90
2022-11-26T22:27:52.993Z,30.70
2022-11-26T22:30:23.967Z,33.30
2022-11-26T22:32:54.899Z,27.60
2022-11-26T22:35:25.467Z,26.90
2022-11-26T22:37:56.743Z,31.80
2022-11-26T22:40:27.514Z,31.30
2022-11-26T22:42:58.989Z,26.20
2022-11-26T22:45:30.125Z,26.60
2022-11-26T22:48:01.150Z,28.10
2022-11-26T22:50:31.780Z,27.30
2022-11-26T22:53:02.390Z,28.10
2022-11-26T22:55:33.070Z,27.50
2022-11-26T22:58:04.015Z,26.20
2022-11-26T23:00:48.064Z,24.00
2022-11-26T23:03:19.761Z,24.90
2022-11-26T23:05:50.629Z,25.40
2022-11-26T23:08:22.109Z,25.50
2022-11-26T23:10:52.908Z,26.40
2022-11-26T23:13:24.281Z,26.60
2022-11-26T23:15:55.031Z,25.70
2022-11-26T23:18:26.175Z,25.30
2022-11-26T23:21:04.342Z,24.00
2022-11-26T23:23:35.683Z,24.10
2022-11-26T23:26:07.548Z,23.00
2022-11-26T23:28:39.187Z,26.00
2022-11-26T23:31:14.048Z,24.20
2022-11-26T23:33:44.909Z,25.10
2022-11-26T23:36:15.969Z,27.10
2022-11-26T23:38:46.845Z,27.20
2022-11-26T23:41:17.734Z,27.10
2022-11-26T23:43:48.571Z,23.90
2022-11-26T23:46:22.376Z,22.80
2022-11-26T23:48:53.649Z,23.50
2022-11-26T23:51:25.277Z,28.60
2022-11-26T23:53:56.919Z,28.20
2022-11-26T23:56:28.545Z,22.10
2022-11-26T23:59:01.681Z,25.80
